Wye River — WDE3583 — position and weather

sailwx.info

Track history (hours):
 
Tides and Currents Weather Stations Pressure Air Temp Water Temp Dewpoint Dewpoint Depression Visibility Wind Speed Wind Dir Waves Ship Positions

Wye River

Owner: Vane Line Bunkering, Inc., Baltimore, MD. More information available from US FCC via Universal Licensing System and Coast Guard Vessel Documentation Center.

Last reported at 2016-Jul-21 03:07 UTC. Time now 2016-Jul-29 21:40 UTC.
Position N 25°44' W 080°03'.
Warning: this ship's position is 8 days out of date.

Length 30 m; draft 4.3 m.

Type: Tow > 200 m length. MMSI: 367341190.

Date/timePositionNaut miles runAvg speedWind from/ knotsBaromVisibWave heightAir tempDewpointWater temp
2016-Jul-21 03:07N 25°44' W 080°03'1 2.0
2016-Jul-21 02:30N 25°45' W 080°03'2 1.7
2016-Jul-21 01:34N 25°47' W 080°03'2 1.5
2016-Jul-21 00:33N 25°49' W 080°03'1 1.2
2016-Jul-20 23:34N 25°50' W 080°04'2 1.6
2016-Jul-20 22:34N 25°51' W 080°04'2 2.0
2016-Jul-20 21:33N 25°53' W 080°04'2 2.5
2016-Jul-20 20:33N 25°56' W 080°04'2 2.3
2016-Jul-20 19:33N 25°58' W 080°04'2 2.4
2016-Jul-20 18:33N 26°01' W 080°04'2 2.3
2016-Jul-20 17:33N 26°03' W 080°04'3 2.9
2016-Jul-20 16:33N 26°06' W 080°04'4 4.0
2016-Jul-20 15:33N 26°10' W 080°03'5 5.3
2016-Jul-20 14:34N 26°15' W 080°02'6 6.2
2016-Jul-20 13:34N 26°21' W 080°02'12 5.9
2016-Jul-20 11:34N 26°33' W 080°00'6 6.3
2016-Jul-20 10:32N 26°39' W 079°59'11 5.4
2016-Jul-20 08:33N 26°50' W 079°59'5 5.2
2016-Jul-20 07:33N 26°55' W 079°60'5 5.2
2016-Jul-20 06:34N 27°00' W 080°00'267 6.0
2016-Jul-18 10:22N 31°21' W 081°03'6 6.3
2016-Jul-18 09:24N 31°27' W 080°60'6 6.2
2016-Jul-18 08:31N 31°32' W 080°58'6 6.2
2016-Jul-18 07:33N 31°38' W 080°56'6 6.3
2016-Jul-18 06:33N 31°44' W 080°53'6 6.1
2016-Jul-18 05:32N 31°49' W 080°50'6 6.1
2016-Jul-18 04:33N 31°53' W 080°45'5 5.3
2016-Jul-18 03:33N 31°59' W 080°46'6 6.1
2016-Jul-18 02:33N 32°02' W 080°52'9 8.7
2016-Jul-18 01:33N 32°05' W 081°01'5 4.8
2016-Jul-18 00:33N 32°06' W 081°07'1 0.5
2016-Jul-17 23:33N 32°06' W 081°07'0 0.0
2016-Jul-17 22:33N 32°06' W 081°07'0 0.0
2016-Jul-17 21:33N 32°06' W 081°07'0 0.0
2016-Jul-17 20:33N 32°06' W 081°07'0 0.0
2016-Jul-17 19:33N 32°06' W 081°07'0 0.1
2016-Jul-17 18:33N 32°06' W 081°06'0 0.1
2016-Jul-17 17:33N 32°06' W 081°07'0 0.0
2016-Jul-17 16:33N 32°06' W 081°06'0 0.0
2016-Jul-17 15:33N 32°06' W 081°06'0 0.0
2016-Jul-17 14:33N 32°06' W 081°06'0 0.0
2016-Jul-17 13:33N 32°06' W 081°06'0 0.1
2016-Jul-17 12:33N 32°06' W 081°06'6 5.6
2016-Jul-17 11:33N 32°06' W 080°60'9 8.6
2016-Jul-17 10:33N 32°02' W 080°51'5 4.5
2016-Jul-17 09:33N 31°59' W 080°47'7 7.2
2016-Jul-17 08:33N 32°00' W 080°38'247 8.5
2016-Jul-16 03:25N 34°20' W 076°35'6 7.6
2016-Jul-16 02:33N 34°24' W 076°29'7 6.7
2016-Jul-16 01:33N 34°28' W 076°22'8 8.2
2016-Jul-16 00:33N 34°36' W 076°20'8 7.9
2016-Jul-15 23:33N 34°43' W 076°17'130 6.3
2016-Jul-15 03:03N 36°51' W 075°53'5 9.5
2016-Jul-15 02:33N 36°55' W 075°57'19 6.2
2016-Jul-14 23:33N 36°56' W 076°20'7 7.1
2016-Jul-14 22:33N 36°49' W 076°17'1 1.4
2016-Jul-14 21:33N 36°48' W 076°17'0 0.2
2016-Jul-14 20:34N 36°48' W 076°18'0 0.0
2016-Jul-14 19:33N 36°48' W 076°18'0 0.0
2016-Jul-14 18:33N 36°48' W 076°18'0 0.0
2016-Jul-14 17:33N 36°48' W 076°18'0 0.0
2016-Jul-14 16:34N 36°48' W 076°18'0 0.0
2016-Jul-14 15:33N 36°48' W 076°18'0 0.0
2016-Jul-14 14:33N 36°48' W 076°18'2 1.9
2016-Jul-14 13:33N 36°50' W 076°18'14 3.1
2016-Jul-14 09:12N 36°58' W 076°04'4 5.9
2016-Jul-14 08:32N 36°57' W 075°59'117 8.4
2016-Jul-13 18:31N 38°35' W 074°38'9 9.4
2016-Jul-13 17:33N 38°43' W 074°33'9 9.1
2016-Jul-13 16:32N 38°51' W 074°27'10 9.2
2016-Jul-13 15:26N 38°60' W 074°21'8 9.3
2016-Jul-13 14:33N 39°07' W 074°16'9 9.2
2016-Jul-13 13:33N 39°15' W 074°11'9 9.3
2016-Jul-13 12:33N 39°24' W 074°07'9 9.4
2016-Jul-13 11:33N 39°33' W 074°03'10 9.6
2016-Jul-13 10:33N 39°42' W 073°59'10 9.9
2016-Jul-13 09:33N 39°52' W 073°57'9 9.2
2016-Jul-13 08:33N 40°01' W 073°56'10 9.6
2016-Jul-13 07:33N 40°11' W 073°54'9 9.5
2016-Jul-13 06:33N 40°20' W 073°54'9 9.1
2016-Jul-13 05:34N 40°29' W 073°55'8 7.6
2016-Jul-13 04:33N 40°35' W 074°02'7 7.3
2016-Jul-13 03:34N 40°42' W 074°02'  
Track history (hours):
 
Tides and Currents Weather Stations Pressure Air Temp Water Temp Dewpoint Dewpoint Depression Visibility Wind Speed Wind Dir Waves Ship Positions

Wye River

Owner: Vane Line Bunkering, Inc., Baltimore, MD. More information available from US FCC via Universal Licensing System and Coast Guard Vessel Documentation Center.

Last reported at 2016-Jul-21 03:07 UTC. Time now 2016-Jul-29 21:40 UTC.
Position N 25°44' W 080°03'.
Warning: this ship's position is 8 days out of date.

Length 30 m; draft 4.3 m.

Type: Tow > 200 m length. MMSI: 367341190.

Date/timePositionNaut miles runAvg speedWind from/ knotsBaromVisibWave heightAir tempDewpointWater temp
2016-Jul-21 03:07N 25°44' W 080°03'1 2.0
2016-Jul-21 02:30N 25°45' W 080°03'2 1.7
2016-Jul-21 01:34N 25°47' W 080°03'2 1.5
2016-Jul-21 00:33N 25°49' W 080°03'1 1.2
2016-Jul-20 23:34N 25°50' W 080°04'2 1.6
2016-Jul-20 22:34N 25°51' W 080°04'2 2.0
2016-Jul-20 21:33N 25°53' W 080°04'2 2.5
2016-Jul-20 20:33N 25°56' W 080°04'2 2.3
2016-Jul-20 19:33N 25°58' W 080°04'2 2.4
2016-Jul-20 18:33N 26°01' W 080°04'2 2.3
2016-Jul-20 17:33N 26°03' W 080°04'3 2.9
2016-Jul-20 16:33N 26°06' W 080°04'4 4.0
2016-Jul-20 15:33N 26°10' W 080°03'5 5.3
2016-Jul-20 14:34N 26°15' W 080°02'6 6.2
2016-Jul-20 13:34N 26°21' W 080°02'12 5.9
2016-Jul-20 11:34N 26°33' W 080°00'6 6.3
2016-Jul-20 10:32N 26°39' W 079°59'11 5.4
2016-Jul-20 08:33N 26°50' W 079°59'5 5.2
2016-Jul-20 07:33N 26°55' W 079°60'5 5.2
2016-Jul-20 06:34N 27°00' W 080°00'267 6.0
2016-Jul-18 10:22N 31°21' W 081°03'6 6.3
2016-Jul-18 09:24N 31°27' W 080°60'6 6.2
2016-Jul-18 08:31N 31°32' W 080°58'6 6.2
2016-Jul-18 07:33N 31°38' W 080°56'6 6.3
2016-Jul-18 06:33N 31°44' W 080°53'6 6.1
2016-Jul-18 05:32N 31°49' W 080°50'6 6.1
2016-Jul-18 04:33N 31°53' W 080°45'5 5.3
2016-Jul-18 03:33N 31°59' W 080°46'6 6.1
2016-Jul-18 02:33N 32°02' W 080°52'9 8.7
2016-Jul-18 01:33N 32°05' W 081°01'5 4.8
2016-Jul-18 00:33N 32°06' W 081°07'1 0.5
2016-Jul-17 23:33N 32°06' W 081°07'0 0.0
2016-Jul-17 22:33N 32°06' W 081°07'0 0.0
2016-Jul-17 21:33N 32°06' W 081°07'0 0.0
2016-Jul-17 20:33N 32°06' W 081°07'0 0.0
2016-Jul-17 19:33N 32°06' W 081°07'0 0.1
2016-Jul-17 18:33N 32°06' W 081°06'0 0.1
2016-Jul-17 17:33N 32°06' W 081°07'0 0.0
2016-Jul-17 16:33N 32°06' W 081°06'0 0.0
2016-Jul-17 15:33N 32°06' W 081°06'0 0.0
2016-Jul-17 14:33N 32°06' W 081°06'0 0.0
2016-Jul-17 13:33N 32°06' W 081°06'0 0.1
2016-Jul-17 12:33N 32°06' W 081°06'6 5.6
2016-Jul-17 11:33N 32°06' W 080°60'9 8.6
2016-Jul-17 10:33N 32°02' W 080°51'5 4.5
2016-Jul-17 09:33N 31°59' W 080°47'7 7.2
2016-Jul-17 08:33N 32°00' W 080°38'247 8.5
2016-Jul-16 03:25N 34°20' W 076°35'6 7.6
2016-Jul-16 02:33N 34°24' W 076°29'7 6.7
2016-Jul-16 01:33N 34°28' W 076°22'8 8.2
2016-Jul-16 00:33N 34°36' W 076°20'8 7.9
2016-Jul-15 23:33N 34°43' W 076°17'130 6.3
2016-Jul-15 03:03N 36°51' W 075°53'5 9.5
2016-Jul-15 02:33N 36°55' W 075°57'19 6.2
2016-Jul-14 23:33N 36°56' W 076°20'7 7.1
2016-Jul-14 22:33N 36°49' W 076°17'1 1.4
2016-Jul-14 21:33N 36°48' W 076°17'0 0.2
2016-Jul-14 20:34N 36°48' W 076°18'0 0.0
2016-Jul-14 19:33N 36°48' W 076°18'0 0.0
2016-Jul-14 18:33N 36°48' W 076°18'0 0.0
2016-Jul-14 17:33N 36°48' W 076°18'0 0.0
2016-Jul-14 16:34N 36°48' W 076°18'0 0.0
2016-Jul-14 15:33N 36°48' W 076°18'0 0.0
2016-Jul-14 14:33N 36°48' W 076°18'2 1.9
2016-Jul-14 13:33N 36°50' W 076°18'14 3.1
2016-Jul-14 09:12N 36°58' W 076°04'4 5.9
2016-Jul-14 08:32N 36°57' W 075°59'117 8.4
2016-Jul-13 18:31N 38°35' W 074°38'9 9.4
2016-Jul-13 17:33N 38°43' W 074°33'9 9.1
2016-Jul-13 16:32N 38°51' W 074°27'10 9.2
2016-Jul-13 15:26N 38°60' W 074°21'8 9.3
2016-Jul-13 14:33N 39°07' W 074°16'9 9.2
2016-Jul-13 13:33N 39°15' W 074°11'9 9.3
2016-Jul-13 12:33N 39°24' W 074°07'9 9.4
2016-Jul-13 11:33N 39°33' W 074°03'10 9.6
2016-Jul-13 10:33N 39°42' W 073°59'10 9.9
2016-Jul-13 09:33N 39°52' W 073°57'9 9.2
2016-Jul-13 08:33N 40°01' W 073°56'10 9.6
2016-Jul-13 07:33N 40°11' W 073°54'9 9.5
2016-Jul-13 06:33N 40°20' W 073°54'9 9.1
2016-Jul-13 05:34N 40°29' W 073°55'8 7.6
2016-Jul-13 04:33N 40°35' W 074°02'7 7.3
2016-Jul-13 03:34N 40°42' W 074°02'  

Dump ship's entire track history